createdAt,value
2018-12-17T00:01:20.362Z,4.18
2018-12-17T00:03:48.984Z,4.25
2018-12-17T00:06:17.681Z,4.14
2018-12-17T00:08:46.426Z,4.01
2018-12-17T00:11:15.728Z,4.21
2018-12-17T00:13:44.472Z,4.23
2018-12-17T00:16:13.164Z,4.15
2018-12-17T00:18:42.009Z,4.13
2018-12-17T00:21:10.735Z,4.15
2018-12-17T00:23:39.353Z,4.15
2018-12-17T00:26:07.987Z,4.22
2018-12-17T00:28:36.669Z,4.21
2018-12-17T00:31:05.425Z,4.33
2018-12-17T00:33:34.076Z,4.31
2018-12-17T00:36:02.782Z,4.42
2018-12-17T00:38:31.390Z,4.27
2018-12-17T00:41:00.031Z,4.31
2018-12-17T00:43:29.813Z,4.31
2018-12-17T00:45:58.665Z,4.28
2018-12-17T00:48:27.505Z,4.23
2018-12-17T00:50:56.127Z,4.32
2018-12-17T00:53:24.830Z,4.32
2018-12-17T00:55:53.488Z,4.27
2018-12-17T00:58:22.103Z,4.26
2018-12-17T01:00:50.743Z,4.05
2018-12-17T01:03:19.372Z,4.27
2018-12-17T01:05:48.000Z,4.44
2018-12-17T01:08:17.146Z,4.46
2018-12-17T01:10:45.780Z,4.52
2018-12-17T01:13:14.392Z,4.53
2018-12-17T01:15:43.076Z,4.42
2018-12-17T01:18:11.745Z,4.40
2018-12-17T01:20:40.377Z,4.50
2018-12-17T01:23:09.022Z,4.38
2018-12-17T01:25:37.649Z,4.40
2018-12-17T01:28:06.260Z,4.31
2018-12-17T01:30:34.901Z,4.41
2018-12-17T01:33:03.554Z,4.41
2018-12-17T01:35:32.175Z,4.30
2018-12-17T01:38:00.771Z,4.35
2018-12-17T01:40:29.515Z,4.18
2018-12-17T01:42:58.112Z,4.34
2018-12-17T01:45:26.798Z,4.40
2018-12-17T01:47:55.424Z,4.42
2018-12-17T01:50:24.191Z,4.30
2018-12-17T01:52:52.791Z,4.49
2018-12-17T01:55:21.617Z,4.46
2018-12-17T01:57:50.336Z,4.49
2018-12-17T02:00:19.169Z,4.46
2018-12-17T02:02:47.753Z,4.49
2018-12-17T02:05:16.508Z,4.55
2018-12-17T02:07:45.109Z,4.63
2018-12-17T02:10:13.728Z,4.68
2018-12-17T02:12:42.439Z,4.58
2018-12-17T02:15:11.324Z,4.43
2018-12-17T02:17:40.018Z,4.48
2018-12-17T02:20:08.664Z,4.50
2018-12-17T02:22:37.275Z,4.58
2018-12-17T02:25:06.231Z,4.51
2018-12-17T02:27:34.857Z,4.46
2018-12-17T02:30:03.809Z,4.52
2018-12-17T02:32:32.436Z,4.52
2018-12-17T02:35:01.064Z,4.49
2018-12-17T02:37:29.673Z,4.51
2018-12-17T02:39:58.313Z,4.59
2018-12-17T02:42:26.995Z,4.65
2018-12-17T02:44:55.709Z,4.61
2018-12-17T02:47:24.352Z,4.64
2018-12-17T02:49:53.064Z,4.49
2018-12-17T02:52:21.659Z,4.57
2018-12-17T02:54:50.341Z,4.58
2018-12-17T02:57:19.005Z,4.50
2018-12-17T02:59:47.708Z,4.51
2018-12-17T03:02:16.501Z,4.59
2018-12-17T03:04:45.280Z,4.58
2018-12-17T03:07:13.952Z,4.41
2018-12-17T03:09:42.656Z,4.26
2018-12-17T03:12:11.329Z,4.14
2018-12-17T03:14:39.942Z,4.32
2018-12-17T03:17:08.540Z,4.50
2018-12-17T03:19:37.200Z,4.46
2018-12-17T03:22:05.810Z,4.59
2018-12-17T03:24:35.226Z,4.61
2018-12-17T03:27:03.850Z,4.70
2018-12-17T03:29:32.563Z,4.71
2018-12-17T03:32:01.733Z,4.71
2018-12-17T03:34:30.462Z,4.73
2018-12-17T03:36:59.076Z,4.82
2018-12-17T03:39:27.812Z,4.73
2018-12-17T03:41:56.412Z,4.66
2018-12-17T03:44:25.291Z,4.76
2018-12-17T03:46:54.173Z,4.77
2018-12-17T03:49:22.781Z,4.77
2018-12-17T03:51:51.395Z,4.52
2018-12-17T03:54:20.027Z,4.69
2018-12-17T03:56:48.747Z,4.70
2018-12-17T03:59:17.398Z,4.78
2018-12-17T04:01:46.029Z,4.87
2018-12-17T04:04:14.683Z,4.84
2018-12-17T04:06:43.403Z,4.79
2018-12-17T04:09:12.049Z,4.74
2018-12-17T04:11:40.647Z,4.76
2018-12-17T04:14:09.387Z,4.74
2018-12-17T04:16:38.120Z,4.72
2018-12-17T04:19:06.744Z,4.81
2018-12-17T04:21:35.375Z,4.88
2018-12-17T04:24:04.216Z,4.85
2018-12-17T04:26:32.868Z,4.88
2018-12-17T04:29:06.743Z,4.91
2018-12-17T04:31:32.276Z,4.91
2018-12-17T04:34:00.969Z,4.89
2018-12-17T04:36:29.594Z,4.93
2018-12-17T04:38:58.272Z,4.99
2018-12-17T04:41:26.903Z,4.91
2018-12-17T04:43:55.724Z,4.95
2018-12-17T04:46:24.357Z,4.82
2018-12-17T04:48:53.100Z,4.70
2018-12-17T04:51:21.863Z,4.62
2018-12-17T04:53:50.559Z,4.60
2018-12-17T04:56:19.166Z,4.50
2018-12-17T04:58:48.048Z,4.50
2018-12-17T05:01:16.648Z,4.51
2018-12-17T05:03:45.283Z,4.55
2018-12-17T05:06:13.871Z,4.54
2018-12-17T05:08:42.530Z,4.67
2018-12-17T05:11:11.243Z,4.50
2018-12-17T05:13:39.959Z,4.64
2018-12-17T05:16:08.633Z,4.76
2018-12-17T05:18:37.292Z,4.73
2018-12-17T05:21:06.067Z,4.73
2018-12-17T05:23:34.691Z,4.79
2018-12-17T05:26:03.298Z,4.79
2018-12-17T05:28:31.970Z,4.80
2018-12-17T05:31:01.112Z,4.88
2018-12-17T05:33:29.879Z,4.89
2018-12-17T05:35:59.179Z,4.95
2018-12-17T05:38:27.845Z,4.93
2018-12-17T05:40:57.020Z,4.94
2018-12-17T05:43:25.835Z,4.95
2018-12-17T05:45:54.468Z,4.76
2018-12-17T05:48:23.102Z,4.82
2018-12-17T05:50:51.832Z,4.69
2018-12-17T05:53:20.498Z,4.79
2018-12-17T05:55:49.316Z,4.76
2018-12-17T05:58:17.965Z,4.72
2018-12-17T06:00:46.628Z,4.68
2018-12-17T06:03:15.262Z,4.63
2018-12-17T06:05:43.883Z,4.48
2018-12-17T06:08:13.443Z,4.49
2018-12-17T06:10:42.189Z,4.49
2018-12-17T06:13:10.974Z,4.56
2018-12-17T06:15:39.667Z,4.59
2018-12-17T06:18:08.400Z,4.61
2018-12-17T06:20:37.015Z,4.67
2018-12-17T06:23:05.709Z,4.55
2018-12-17T06:25:34.579Z,4.39
2018-12-17T06:28:03.378Z,4.30
2018-12-17T06:30:32.052Z,4.32
2018-12-17T06:33:00.709Z,4.43
2018-12-17T06:35:29.472Z,4.41
2018-12-17T06:37:58.119Z,4.18
2018-12-17T06:40:26.763Z,4.34
2018-12-17T06:42:55.387Z,4.36
2018-12-17T06:45:24.117Z,4.23
2018-12-17T06:47:52.767Z,4.25
2018-12-17T06:50:21.386Z,4.33
2018-12-17T06:52:50.122Z,4.34
2018-12-17T06:55:18.825Z,4.25
2018-12-17T06:57:47.799Z,4.22
2018-12-17T07:00:16.396Z,4.30
2018-12-17T07:02:45.243Z,4.49
2018-12-17T07:05:13.860Z,4.31
2018-12-17T07:07:42.520Z,3.82
2018-12-17T07:10:11.140Z,4.16
2018-12-17T07:12:39.895Z,4.22
2018-12-17T07:15:08.646Z,4.13
2018-12-17T07:17:37.295Z,4.15
2018-12-17T07:20:06.433Z,4.18
2018-12-17T07:22:35.164Z,4.25
2018-12-17T07:25:04.344Z,4.09
2018-12-17T07:27:33.082Z,4.14
2018-12-17T07:30:01.913Z,4.10
2018-12-17T07:32:30.609Z,4.07
2018-12-17T07:34:59.247Z,4.17
2018-12-17T07:37:28.354Z,4.08
2018-12-17T07:39:57.198Z,4.12
2018-12-17T07:42:25.843Z,3.96
2018-12-17T07:44:54.521Z,4.02
2018-12-17T07:47:23.136Z,4.13
2018-12-17T07:49:51.795Z,4.15
2018-12-17T07:52:20.500Z,4.25
2018-12-17T07:54:49.174Z,4.30
2018-12-17T07:57:17.879Z,4.34
2018-12-17T07:59:46.483Z,4.50
2018-12-17T08:02:15.253Z,4.54
2018-12-17T08:04:43.855Z,4.53
2018-12-17T08:07:12.520Z,4.56
2018-12-17T08:09:41.174Z,4.31
2018-12-17T08:12:09.780Z,4.41
2018-12-17T08:14:38.401Z,4.54
2018-12-17T08:17:07.196Z,4.60
2018-12-17T08:19:35.827Z,4.68
2018-12-17T08:22:04.527Z,4.44
2018-12-17T08:24:33.210Z,4.64
2018-12-17T08:27:01.960Z,4.70
2018-12-17T08:29:30.631Z,4.74
2018-12-17T08:31:59.352Z,4.62
2018-12-17T08:34:29.223Z,4.63
2018-12-17T08:36:57.904Z,4.64
2018-12-17T08:39:26.502Z,4.80
2018-12-17T08:41:55.203Z,4.83
2018-12-17T08:44:23.811Z,4.82
2018-12-17T08:46:52.490Z,4.79
2018-12-17T08:49:21.078Z,4.96
2018-12-17T08:51:49.834Z,4.91
2018-12-17T08:54:18.549Z,4.81
2018-12-17T08:56:47.323Z,4.74
2018-12-17T08:59:15.938Z,4.77
2018-12-17T09:01:44.691Z,4.90
2018-12-17T09:04:13.411Z,4.98
2018-12-17T09:06:42.133Z,5.15
2018-12-17T09:09:10.887Z,4.91
2018-12-17T09:11:39.615Z,4.82
2018-12-17T09:14:08.234Z,4.87
2018-12-17T09:16:36.994Z,4.55
2018-12-17T09:19:05.629Z,4.74
2018-12-17T09:21:34.359Z,4.83
2018-12-17T09:24:02.963Z,4.91
2018-12-17T09:26:31.942Z,4.88
2018-12-17T09:29:00.585Z,4.96
2018-12-17T09:31:29.506Z,4.95
2018-12-17T09:33:58.129Z,5.02
2018-12-17T09:36:26.808Z,5.12
2018-12-17T09:38:55.452Z,5.10
2018-12-17T09:41:24.304Z,5.16
2018-12-17T09:43:52.899Z,5.22
2018-12-17T09:46:21.627Z,5.20
2018-12-17T09:48:50.313Z,5.24
2018-12-17T09:51:19.733Z,5.23
2018-12-17T09:53:48.888Z,5.07
2018-12-17T09:56:17.601Z,5.29
2018-12-17T09:58:46.271Z,5.25
2018-12-17T10:01:15.050Z,5.28
2018-12-17T10:03:43.739Z,5.33
2018-12-17T10:06:12.459Z,5.34
2018-12-17T10:08:41.227Z,5.23
2018-12-17T10:11:09.870Z,5.06
2018-12-17T10:13:38.495Z,4.92
2018-12-17T10:16:07.379Z,4.97
2018-12-17T10:18:38.400Z,4.85
2018-12-17T10:21:07.135Z,5.05
2018-12-17T10:23:36.060Z,5.03
2018-12-17T10:26:04.855Z,4.94
2018-12-17T10:28:33.603Z,4.93
2018-12-17T10:31:02.303Z,4.94
2018-12-17T10:33:30.953Z,4.92
2018-12-17T10:35:59.566Z,5.21
2018-12-17T10:38:28.176Z,5.35
2018-12-17T10:40:56.852Z,5.45
2018-12-17T10:43:25.471Z,5.68
2018-12-17T10:45:54.213Z,5.68
2018-12-17T10:48:22.823Z,5.72
2018-12-17T10:50:51.595Z,5.83
2018-12-17T10:53:20.213Z,5.95
2018-12-17T10:55:48.947Z,5.95
2018-12-17T10:58:17.638Z,6.07
2018-12-17T11:00:51.629Z,6.03
2018-12-17T11:03:24.416Z,5.65
2018-12-17T11:05:54.549Z,5.82
2018-12-17T11:08:23.343Z,5.81
2018-12-17T11:10:52.043Z,5.97
2018-12-17T11:13:20.711Z,5.83
2018-12-17T11:15:49.379Z,5.97
2018-12-17T11:18:18.022Z,6.14
2018-12-17T11:20:46.912Z,6.03
2018-12-17T11:23:15.538Z,6.06
2018-12-17T11:25:44.464Z,6.15
2018-12-17T11:28:13.322Z,6.17
2018-12-17T11:30:46.533Z,6.43
2018-12-17T11:33:19.155Z,6.59
2018-12-17T11:35:47.792Z,6.64
2018-12-17T11:38:16.668Z,6.74
2018-12-17T11:40:45.412Z,6.65
2018-12-17T11:43:14.055Z,6.83
2018-12-17T11:45:42.930Z,6.79
2018-12-17T11:48:11.599Z,6.94
2018-12-17T11:50:40.366Z,6.88
2018-12-17T11:53:09.067Z,6.77
2018-12-17T11:55:37.824Z,7.04
2018-12-17T11:58:12.246Z,7.19
2018-12-17T12:00:44.601Z,7.15
2018-12-17T12:03:13.214Z,7.44
2018-12-17T12:05:41.893Z,7.52
2018-12-17T12:08:10.640Z,7.77
2018-12-17T12:10:39.285Z,7.92
2018-12-17T12:13:08.028Z,7.94
2018-12-17T12:15:36.842Z,8.21
2018-12-17T12:18:05.675Z,8.29
2018-12-17T12:20:35.186Z,8.37
2018-12-17T12:23:03.819Z,8.19
2018-12-17T12:25:32.513Z,7.91
2018-12-17T12:28:01.327Z,7.79
2018-12-17T12:30:30.197Z,7.89
2018-12-17T12:32:59.860Z,7.75
2018-12-17T12:35:28.570Z,7.60
2018-12-17T12:37:58.639Z,7.09
2018-12-17T12:40:27.587Z,6.84
2018-12-17T12:42:56.336Z,7.13
2018-12-17T12:45:25.057Z,7.09
2018-12-17T12:47:53.910Z,7.29
2018-12-17T12:50:22.786Z,7.35
2018-12-17T12:52:51.515Z,7.17
2018-12-17T12:55:20.271Z,7.21
2018-12-17T12:57:48.868Z,6.83
2018-12-17T13:00:17.553Z,6.85
2018-12-17T13:02:46.484Z,7.25
2018-12-17T13:05:15.125Z,6.92
2018-12-17T13:07:44.052Z,6.83
2018-12-17T13:10:13.333Z,6.73
2018-12-17T13:12:42.184Z,6.80
2018-12-17T13:15:11.162Z,6.86
2018-12-17T13:17:39.779Z,6.89
2018-12-17T13:20:10.016Z,7.11
2018-12-17T13:22:39.039Z,7.35
2018-12-17T13:25:14.808Z,7.27
2018-12-17T13:27:43.523Z,7.07
2018-12-17T13:30:12.273Z,6.96
2018-12-17T13:32:40.904Z,7.10
2018-12-17T13:35:10.093Z,7.23
2018-12-17T13:37:38.702Z,7.24
2018-12-17T13:40:09.659Z,7.12
2018-12-17T13:42:38.253Z,7.20
2018-12-17T13:45:07.396Z,6.91
2018-12-17T13:47:36.029Z,6.84
2018-12-17T13:50:10.145Z,7.18
2018-12-17T13:52:44.022Z,6.84
2018-12-17T13:55:12.787Z,6.88
2018-12-17T13:57:41.389Z,7.16
2018-12-17T14:00:11.851Z,7.14
2018-12-17T14:02:40.612Z,6.97
2018-12-17T14:05:09.496Z,6.71
2018-12-17T14:07:38.136Z,6.77
2018-12-17T14:10:14.605Z,6.92
2018-12-17T14:12:43.472Z,7.14
2018-12-17T14:15:12.227Z,6.86
2018-12-17T14:17:44.943Z,6.75
2018-12-17T14:20:19.187Z,6.96
2018-12-17T14:22:47.808Z,7.01
2018-12-17T14:25:16.447Z,7.03
2018-12-17T14:27:45.105Z,7.12
2018-12-17T14:30:14.093Z,6.96
2018-12-17T14:32:42.815Z,7.02
2018-12-17T14:35:11.548Z,7.01
2018-12-17T14:37:45.596Z,7.04
2018-12-17T14:40:14.429Z,7.02
2018-12-17T14:42:43.136Z,7.06
2018-12-17T14:45:12.124Z,7.20
2018-12-17T14:47:40.787Z,6.82
2018-12-17T14:50:09.399Z,7.07
2018-12-17T14:52:38.073Z,7.00
2018-12-17T14:55:08.184Z,6.97
2018-12-17T14:57:36.894Z,6.72
2018-12-17T15:00:07.741Z,6.91
2018-12-17T15:02:36.353Z,6.58
2018-12-17T15:05:05.591Z,6.71
2018-12-17T15:07:34.352Z,6.46
2018-12-17T15:10:03.152Z,6.39
2018-12-17T15:12:31.923Z,6.19
2018-12-17T15:15:00.670Z,6.01
2018-12-17T15:17:29.281Z,6.10
2018-12-17T15:19:57.913Z,6.37
2018-12-17T15:22:26.627Z,6.51
2018-12-17T15:24:55.286Z,6.33
2018-12-17T15:27:24.356Z,6.20
2018-12-17T15:29:53.011Z,5.91
2018-12-17T15:32:21.668Z,6.04
2018-12-17T15:34:50.351Z,6.09
2018-12-17T15:37:18.944Z,6.09
2018-12-17T15:39:47.580Z,5.76
2018-12-17T15:42:16.651Z,6.08
2018-12-17T15:44:45.347Z,6.01
2018-12-17T15:47:14.882Z,6.27
2018-12-17T15:49:43.989Z,6.22
2018-12-17T15:52:12.640Z,6.26
2018-12-17T15:54:41.403Z,6.08
2018-12-17T15:57:10.151Z,6.39
2018-12-17T15:59:39.559Z,6.45
2018-12-17T16:02:08.391Z,6.02
2018-12-17T16:04:37.100Z,5.76
2018-12-17T16:07:05.720Z,5.92
2018-12-17T16:09:34.398Z,6.05
2018-12-17T16:12:03.008Z,5.67
2018-12-17T16:14:31.685Z,5.69
2018-12-17T16:17:00.293Z,5.56
2018-12-17T16:19:29.176Z,5.55
2018-12-17T16:21:57.804Z,5.39
2018-12-17T16:24:26.439Z,5.57
2018-12-17T16:26:55.091Z,5.81
2018-12-17T16:29:23.793Z,5.48
2018-12-17T16:31:57.269Z,5.28
2018-12-17T16:34:23.126Z,5.20
2018-12-17T16:36:52.071Z,5.16
2018-12-17T16:39:20.714Z,5.23
2018-12-17T16:41:49.444Z,5.09
2018-12-17T16:44:18.088Z,5.05
2018-12-17T16:46:46.953Z,5.10
2018-12-17T16:49:15.677Z,4.98
2018-12-17T16:51:44.299Z,4.93
2018-12-17T16:54:13.063Z,4.91
2018-12-17T16:56:41.990Z,5.17
2018-12-17T16:59:10.625Z,5.18
2018-12-17T17:01:39.253Z,5.34
2018-12-17T17:04:07.887Z,5.37
2018-12-17T17:06:36.524Z,5.18
2018-12-17T17:09:07.531Z,5.18
2018-12-17T17:11:36.390Z,5.41
2018-12-17T17:14:05.355Z,5.26
2018-12-17T17:16:34.073Z,5.38
2018-12-17T17:19:02.687Z,5.56
2018-12-17T17:21:31.303Z,5.25
2018-12-17T17:24:00.136Z,5.42
2018-12-17T17:26:28.839Z,5.38
2018-12-17T17:28:57.479Z,5.21
2018-12-17T17:31:26.156Z,5.25
2018-12-17T17:33:55.198Z,5.07
2018-12-17T17:36:23.824Z,4.99
2018-12-17T17:38:52.543Z,4.88
2018-12-17T17:41:21.199Z,4.80
2018-12-17T17:43:49.941Z,4.90
2018-12-17T17:46:18.623Z,4.93
2018-12-17T17:48:47.447Z,5.11
2018-12-17T17:51:16.435Z,4.99
2018-12-17T17:53:45.070Z,5.19
2018-12-17T17:56:13.693Z,5.17
2018-12-17T17:58:42.623Z,5.13
2018-12-17T18:01:11.225Z,5.27
2018-12-17T18:03:39.884Z,5.59
2018-12-17T18:06:08.572Z,5.63
2018-12-17T18:08:37.203Z,5.39
2018-12-17T18:11:05.861Z,5.61
2018-12-17T18:13:34.670Z,5.81
2018-12-17T18:16:09.469Z,5.94
2018-12-17T18:18:38.168Z,5.98
2018-12-17T18:21:06.883Z,5.63
2018-12-17T18:23:35.503Z,5.74
2018-12-17T18:26:04.143Z,5.63
2018-12-17T18:28:32.803Z,5.68
2018-12-17T18:31:01.413Z,5.71
2018-12-17T18:33:30.141Z,5.58
2018-12-17T18:35:58.876Z,5.62
2018-12-17T18:38:27.503Z,5.51
2018-12-17T18:40:56.148Z,5.25
2018-12-17T18:43:24.806Z,5.24
2018-12-17T18:45:53.527Z,5.09
2018-12-17T18:48:22.183Z,5.17
2018-12-17T18:50:50.883Z,5.35
2018-12-17T18:53:19.559Z,5.37
2018-12-17T18:55:48.220Z,5.39
2018-12-17T18:58:16.890Z,5.14
2018-12-17T19:00:45.584Z,5.33
2018-12-17T19:03:14.237Z,5.46
2018-12-17T19:05:42.891Z,5.45
2018-12-17T19:08:11.545Z,5.33
2018-12-17T19:10:46.061Z,5.32
2018-12-17T19:13:15.055Z,5.34
2018-12-17T19:15:43.666Z,5.28
2018-12-17T19:18:12.397Z,5.43
2018-12-17T19:20:40.992Z,5.43
2018-12-17T19:23:09.804Z,5.36
2018-12-17T19:25:38.440Z,5.27
2018-12-17T19:28:07.059Z,5.32
2018-12-17T19:30:35.681Z,5.28
2018-12-17T19:33:04.337Z,5.14
2018-12-17T19:35:33.086Z,5.11
2018-12-17T19:38:01.807Z,5.03
2018-12-17T19:40:30.463Z,5.19
2018-12-17T19:42:59.096Z,5.12
2018-12-17T19:45:27.703Z,5.13
2018-12-17T19:47:56.347Z,4.97
2018-12-17T19:50:25.029Z,4.77
2018-12-17T19:52:53.700Z,4.97
2018-12-17T19:55:22.389Z,5.02
2018-12-17T19:57:51.044Z,5.09
2018-12-17T20:00:19.647Z,5.08
2018-12-17T20:02:48.460Z,5.12
2018-12-17T20:05:17.076Z,5.11
2018-12-17T20:07:45.769Z,5.08
2018-12-17T20:10:19.671Z,5.17
2018-12-17T20:12:48.428Z,5.00
2018-12-17T20:15:17.051Z,4.69
2018-12-17T20:17:45.663Z,4.71
2018-12-17T20:20:14.277Z,4.78
2018-12-17T20:22:42.992Z,4.87
2018-12-17T20:25:11.733Z,4.87
2018-12-17T20:27:40.492Z,4.97
2018-12-17T20:30:11.124Z,4.89
2018-12-17T20:32:40.523Z,4.57
2018-12-17T20:35:10.163Z,4.88
2018-12-17T20:37:38.771Z,4.98
2018-12-17T20:40:09.395Z,4.96
2018-12-17T20:42:38.041Z,4.95
2018-12-17T20:45:08.787Z,4.83
2018-12-17T20:47:37.983Z,4.82
2018-12-17T20:50:07.659Z,4.67
2018-12-17T20:52:36.307Z,4.76
2018-12-17T20:55:05.763Z,4.88
2018-12-17T20:57:34.480Z,4.98
2018-12-17T21:00:03.408Z,5.13
2018-12-17T21:02:32.028Z,5.18
2018-12-17T21:05:00.690Z,5.25
2018-12-17T21:07:29.488Z,5.15
2018-12-17T21:09:59.864Z,5.14
2018-12-17T21:12:28.580Z,5.16
2018-12-17T21:14:57.310Z,5.19
2018-12-17T21:17:26.289Z,5.25
2018-12-17T21:19:54.912Z,5.40
2018-12-17T21:22:23.546Z,5.28
2018-12-17T21:24:52.387Z,5.33
2018-12-17T21:27:21.184Z,5.34
2018-12-17T21:29:49.803Z,5.31
2018-12-17T21:32:18.472Z,5.29
2018-12-17T21:34:47.502Z,5.07
2018-12-17T21:37:16.504Z,5.28
2018-12-17T21:39:45.220Z,5.39
2018-12-17T21:42:13.913Z,5.42
2018-12-17T21:44:42.608Z,5.15
2018-12-17T21:47:11.256Z,5.29
2018-12-17T21:49:39.956Z,5.37
2018-12-17T21:52:08.896Z,5.35
2018-12-17T21:54:37.559Z,5.11
2018-12-17T21:57:07.017Z,4.98
2018-12-17T21:59:35.655Z,4.72
2018-12-17T22:02:04.479Z,4.99
2018-12-17T22:04:33.095Z,4.99
2018-12-17T22:07:01.711Z,5.06
2018-12-17T22:09:30.350Z,5.22
2018-12-17T22:11:58.996Z,5.22
2018-12-17T22:14:27.778Z,5.11
2018-12-17T22:16:56.411Z,5.23
2018-12-17T22:19:25.047Z,5.05
2018-12-17T22:21:53.653Z,5.16
2018-12-17T22:24:22.383Z,5.08
2018-12-17T22:26:51.046Z,4.88
2018-12-17T22:29:19.891Z,4.76
2018-12-17T22:31:48.644Z,4.51
2018-12-17T22:34:17.245Z,4.53
2018-12-17T22:36:45.956Z,4.34
2018-12-17T22:39:14.577Z,4.39
2018-12-17T22:41:43.224Z,4.56
2018-12-17T22:44:11.920Z,4.37
2018-12-17T22:46:40.649Z,4.40
2018-12-17T22:49:09.242Z,4.34
2018-12-17T22:51:38.041Z,4.45
2018-12-17T22:54:06.635Z,4.40
2018-12-17T22:56:35.378Z,4.55
2018-12-17T22:59:04.003Z,4.49
2018-12-17T23:01:32.709Z,4.53
2018-12-17T23:04:01.464Z,4.59
2018-12-17T23:06:30.186Z,4.82
2018-12-17T23:09:07.286Z,4.74
2018-12-17T23:18:49.711Z,5.26
2018-12-17T23:21:18.644Z,5.42
2018-12-17T23:23:47.439Z,5.48
2018-12-17T23:26:16.201Z,5.43
2018-12-17T23:28:44.894Z,5.50
2018-12-17T23:31:13.665Z,5.50
2018-12-17T23:33:42.299Z,5.49
2018-12-17T23:36:10.992Z,5.62
2018-12-17T23:38:39.725Z,5.48
2018-12-17T23:41:08.420Z,5.49
2018-12-17T23:43:37.093Z,5.51
2018-12-17T23:46:05.766Z,5.50
2018-12-17T23:48:34.387Z,5.53
2018-12-17T23:51:03.089Z,5.69
2018-12-17T23:53:31.732Z,5.69
2018-12-17T23:56:00.435Z,5.63
2018-12-17T23:58:29.222Z,5.64
